createdAt,value
2023-05-08T00:00:14.231Z,25.00
2023-05-08T00:01:13.939Z,25.00
2023-05-08T00:02:14.004Z,25.00
2023-05-08T00:03:14.109Z,0.00
2023-05-08T00:04:14.155Z,0.00
2023-05-08T00:05:14.058Z,0.00
2023-05-08T00:06:14.121Z,0.00
2023-05-08T00:07:14.098Z,0.00
2023-05-08T00:08:14.129Z,16.13
2023-05-08T00:09:14.165Z,25.01
2023-05-08T00:10:14.446Z,24.29
2023-05-08T00:11:14.227Z,25.00
2023-05-08T00:12:14.245Z,25.00
2023-05-08T00:13:14.347Z,25.00
2023-05-08T00:14:14.312Z,25.00
2023-05-08T00:15:14.360Z,25.51
2023-05-08T00:16:14.406Z,24.45
2023-05-08T00:17:14.373Z,26.00
2023-05-08T00:18:14.382Z,25.00
2023-05-08T00:19:14.387Z,25.00
2023-05-08T00:20:14.722Z,25.00
2023-05-08T00:21:14.392Z,25.00
2023-05-08T00:22:14.409Z,26.28
2023-05-08T00:23:14.421Z,26.09
2023-05-08T00:24:14.419Z,25.00
2023-05-08T00:25:14.436Z,26.90
2023-05-08T00:26:14.433Z,25.00
2023-05-08T00:27:14.439Z,26.27
2023-05-08T00:28:14.437Z,25.00
2023-05-08T00:29:14.528Z,25.00
2023-05-08T00:30:14.594Z,28.01
2023-05-08T00:31:14.445Z,26.54
2023-05-08T00:32:14.523Z,25.21
2023-05-08T00:33:14.517Z,26.83
2023-05-08T00:34:14.454Z,27.65
2023-05-08T00:35:14.465Z,27.85
2023-05-08T00:36:14.476Z,25.52
2023-05-08T00:37:14.469Z,27.91
2023-05-08T00:38:14.478Z,28.60
2023-05-08T00:39:14.471Z,25.99
2023-05-08T00:40:14.710Z,29.27
2023-05-08T00:41:14.492Z,26.02
2023-05-08T00:42:14.470Z,27.45
2023-05-08T00:43:14.459Z,26.38
2023-05-08T00:44:14.460Z,27.26
2023-05-08T00:45:14.475Z,26.99
2023-05-08T00:46:14.501Z,26.07
2023-05-08T00:47:14.446Z,27.70
2023-05-08T00:48:14.459Z,28.20
2023-05-08T00:49:14.612Z,26.68
2023-05-08T00:50:14.896Z,28.41
2023-05-08T00:51:14.461Z,25.00
2023-05-08T00:52:14.429Z,25.80
2023-05-08T00:53:14.431Z,28.64
2023-05-08T00:54:14.436Z,29.21
2023-05-08T00:55:14.431Z,28.57
2023-05-08T00:56:14.452Z,26.91
2023-05-08T00:57:14.437Z,27.01
2023-05-08T00:58:14.418Z,26.74
2023-05-08T00:59:14.418Z,25.35
2023-05-08T01:00:14.677Z,27.05
2023-05-08T01:01:14.463Z,27.13
2023-05-08T01:02:14.452Z,26.73
2023-05-08T01:03:14.577Z,28.35
2023-05-08T01:04:14.426Z,26.53
2023-05-08T01:05:14.421Z,25.11
2023-05-08T01:06:14.439Z,29.92
2023-05-08T01:07:14.419Z,30.23
2023-05-08T01:08:14.418Z,28.80
2023-05-08T01:09:14.408Z,26.30
2023-05-08T01:10:14.803Z,27.41
2023-05-08T01:11:14.431Z,31.75
2023-05-08T01:12:14.437Z,31.26
2023-05-08T01:13:14.450Z,26.86
2023-05-08T01:14:14.404Z,28.19
2023-05-08T01:15:14.407Z,29.27
2023-05-08T01:16:14.538Z,28.60
2023-05-08T01:17:14.452Z,27.63
2023-05-08T01:18:14.392Z,27.87
2023-05-08T01:19:14.412Z,28.23
2023-05-08T01:20:14.561Z,26.91
2023-05-08T01:21:14.406Z,30.69
2023-05-08T01:22:14.388Z,25.67
2023-05-08T01:23:14.396Z,27.65
2023-05-08T01:24:14.396Z,26.67
2023-05-08T01:25:14.393Z,28.60
2023-05-08T01:26:14.391Z,31.13
2023-05-08T01:27:14.398Z,31.39
2023-05-08T01:28:14.407Z,25.95
2023-05-08T01:29:14.392Z,27.03
2023-05-08T01:30:14.561Z,25.00
2023-05-08T01:31:14.401Z,26.28
2023-05-08T01:32:14.414Z,26.57
2023-05-08T01:33:14.508Z,27.66
2023-05-08T01:34:14.407Z,28.34
2023-05-08T01:35:14.395Z,31.43
2023-05-08T01:36:14.402Z,28.12
2023-05-08T01:37:14.396Z,30.15
2023-05-08T01:38:14.403Z,26.79
2023-05-08T01:39:14.401Z,31.42
2023-05-08T01:40:14.799Z,30.26
2023-05-08T01:41:14.425Z,27.37
2023-05-08T01:42:14.420Z,27.39
2023-05-08T01:43:15.124Z,29.00
2023-05-08T01:44:14.441Z,28.27
2023-05-08T01:45:14.437Z,29.80
2023-05-08T01:46:14.480Z,27.97
2023-05-08T01:47:14.425Z,29.58
2023-05-08T01:48:14.430Z,27.59
2023-05-08T01:49:14.457Z,28.38
2023-05-08T01:50:14.730Z,30.85
2023-05-08T01:51:14.425Z,28.42
2023-05-08T01:52:14.423Z,28.41
2023-05-08T01:53:14.433Z,29.70
2023-05-08T01:54:14.433Z,32.40
2023-05-08T01:55:14.441Z,27.33
2023-05-08T01:56:14.450Z,26.97
2023-05-08T01:57:14.454Z,30.21
2023-05-08T01:58:14.446Z,28.01
2023-05-08T01:59:14.467Z,29.14
2023-05-08T02:00:14.807Z,29.89
2023-05-08T02:01:14.526Z,25.00
2023-05-08T02:02:14.515Z,27.03
2023-05-08T02:03:14.504Z,28.80
2023-05-08T02:04:14.540Z,31.07
2023-05-08T02:05:14.519Z,26.32
2023-05-08T02:06:14.486Z,30.28
2023-05-08T02:07:14.483Z,28.11
2023-05-08T02:08:14.490Z,28.79
2023-05-08T02:09:14.493Z,25.12
2023-05-08T02:10:14.684Z,28.27
2023-05-08T02:11:14.500Z,28.11
2023-05-08T02:12:14.520Z,27.96
2023-05-08T02:13:14.575Z,27.06
2023-05-08T02:14:14.505Z,28.19
2023-05-08T02:15:14.523Z,25.29
2023-05-08T02:16:14.581Z,28.77
2023-05-08T02:17:14.532Z,28.32
2023-05-08T02:18:14.534Z,28.09
2023-05-08T02:19:14.533Z,27.10
2023-05-08T02:20:14.730Z,29.83
2023-05-08T02:21:14.556Z,26.77
2023-05-08T02:22:14.542Z,26.76
2023-05-08T02:23:15.146Z,28.66
2023-05-08T02:24:14.558Z,29.12
2023-05-08T02:25:14.584Z,28.34
2023-05-08T02:26:14.566Z,28.04
2023-05-08T02:27:14.560Z,30.16
2023-05-08T02:28:14.564Z,29.76
2023-05-08T02:29:14.569Z,26.15
2023-05-08T02:30:14.790Z,30.07
2023-05-08T02:31:14.576Z,26.65
2023-05-08T02:32:14.736Z,27.03
2023-05-08T02:33:14.648Z,29.10
2023-05-08T02:34:14.583Z,29.05
2023-05-08T02:35:14.595Z,28.47
2023-05-08T02:36:14.601Z,30.70
2023-05-08T02:37:14.641Z,29.87
2023-05-08T02:38:14.627Z,30.03
2023-05-08T02:39:14.634Z,31.76
2023-05-08T02:40:14.970Z,29.14
2023-05-08T02:41:14.658Z,32.65
2023-05-08T02:42:14.660Z,32.41
2023-05-08T02:43:14.674Z,30.51
2023-05-08T02:44:14.684Z,31.05
2023-05-08T02:45:15.057Z,32.70
2023-05-08T02:46:15.148Z,30.35
2023-05-08T02:47:15.108Z,27.99
2023-05-08T02:48:15.121Z,29.87
2023-05-08T02:49:15.105Z,29.50
2023-05-08T02:50:15.099Z,28.31
2023-05-08T02:51:15.100Z,33.53
2023-05-08T02:52:15.125Z,31.32
2023-05-08T02:53:15.130Z,30.28
2023-05-08T02:54:15.105Z,29.03
2023-05-08T02:55:15.126Z,27.72
2023-05-08T02:56:15.106Z,28.89
2023-05-08T02:57:15.104Z,32.02
2023-05-08T02:58:15.115Z,29.68
2023-05-08T02:59:15.102Z,28.34
2023-05-08T03:00:15.144Z,28.73
2023-05-08T03:01:15.140Z,30.41
2023-05-08T03:02:15.143Z,29.91
2023-05-08T03:03:15.367Z,31.96
2023-05-08T03:04:15.114Z,27.34
2023-05-08T03:05:15.103Z,29.34
2023-05-08T03:06:15.122Z,27.34
2023-05-08T03:07:15.105Z,30.47
2023-05-08T03:08:15.106Z,28.37
2023-05-08T03:09:15.132Z,27.94
2023-05-08T03:10:15.295Z,28.49
2023-05-08T03:11:15.098Z,28.65
2023-05-08T03:12:15.097Z,31.00
2023-05-08T03:13:15.203Z,30.66
2023-05-08T03:14:15.105Z,29.78
2023-05-08T03:15:15.099Z,30.11
2023-05-08T03:16:15.290Z,26.25
2023-05-08T03:17:15.096Z,28.45
2023-05-08T03:18:15.094Z,30.48
2023-05-08T03:19:15.106Z,30.16
2023-05-08T03:20:15.276Z,28.11
2023-05-08T03:21:15.099Z,31.31
2023-05-08T03:22:15.098Z,30.33
2023-05-08T03:23:15.105Z,28.76
2023-05-08T03:24:15.132Z,27.42
2023-05-08T03:25:15.226Z,30.43
2023-05-08T03:26:15.132Z,29.77
2023-05-08T03:27:15.143Z,28.24
2023-05-08T03:28:15.152Z,27.65
2023-05-08T03:29:15.213Z,29.17
2023-05-08T03:30:15.453Z,32.50
2023-05-08T03:31:15.283Z,27.57
2023-05-08T03:32:15.221Z,30.73
2023-05-08T03:33:15.228Z,27.32
2023-05-08T03:34:15.229Z,31.46
2023-05-08T03:35:15.234Z,28.23
2023-05-08T03:36:15.263Z,29.07
2023-05-08T03:37:15.267Z,29.50
2023-05-08T03:38:15.265Z,30.54
2023-05-08T03:39:15.283Z,28.46
2023-05-08T03:40:15.299Z,30.70
2023-05-08T03:41:15.330Z,29.93
2023-05-08T03:42:15.320Z,29.09
2023-05-08T03:43:15.341Z,29.65
2023-05-08T03:44:15.351Z,28.70
2023-05-08T03:45:15.369Z,29.43
2023-05-08T03:46:15.400Z,29.18
2023-05-08T03:47:15.393Z,29.50
2023-05-08T03:48:15.530Z,29.98
2023-05-08T03:49:15.413Z,26.47
2023-05-08T03:50:15.463Z,29.85
2023-05-08T03:51:15.436Z,31.42
2023-05-08T03:52:15.446Z,28.42
2023-05-08T03:53:15.520Z,28.87
2023-05-08T03:54:15.473Z,28.49
2023-05-08T03:55:15.497Z,29.08
2023-05-08T03:56:15.501Z,29.80
2023-05-08T03:57:15.688Z,28.55
2023-05-08T03:58:15.547Z,29.57
2023-05-08T03:59:15.556Z,32.21
2023-05-08T04:00:15.664Z,28.75
2023-05-08T04:01:15.591Z,30.37
2023-05-08T04:02:15.692Z,31.83
2023-05-08T04:03:15.751Z,26.65
2023-05-08T04:04:15.728Z,28.84
2023-05-08T04:05:15.672Z,33.69
2023-05-08T04:06:15.659Z,30.86
2023-05-08T04:07:15.662Z,27.96
2023-05-08T04:08:15.730Z,30.87
2023-05-08T04:09:15.683Z,30.70
2023-05-08T04:10:15.896Z,30.37
2023-05-08T04:11:15.704Z,27.35
2023-05-08T04:12:15.700Z,27.33
2023-05-08T04:13:15.761Z,28.66
2023-05-08T04:14:15.719Z,30.30
2023-05-08T04:15:15.890Z,28.43
2023-05-08T04:16:16.120Z,33.52
2023-05-08T04:17:16.122Z,30.86
2023-05-08T04:18:16.124Z,33.23
2023-05-08T04:19:16.158Z,30.32
2023-05-08T04:20:16.123Z,26.10
2023-05-08T04:21:16.126Z,32.18
2023-05-08T04:22:16.132Z,30.14
2023-05-08T04:23:16.128Z,30.98
2023-05-08T04:24:16.135Z,26.84
2023-05-08T04:25:16.243Z,27.03
2023-05-08T04:26:16.650Z,29.91
2023-05-08T04:27:16.135Z,30.10
2023-05-08T04:28:16.128Z,31.85
2023-05-08T04:29:16.162Z,28.47
2023-05-08T04:30:16.145Z,30.04
2023-05-08T04:31:16.211Z,33.38
2023-05-08T04:32:16.189Z,30.47
2023-05-08T04:33:16.178Z,27.21
2023-05-08T04:34:16.136Z,31.58
2023-05-08T04:35:16.453Z,29.08
2023-05-08T04:36:16.146Z,32.00
2023-05-08T04:37:16.150Z,31.09
2023-05-08T04:38:16.142Z,29.54
2023-05-08T04:39:16.150Z,32.62
2023-05-08T04:40:16.149Z,29.62
2023-05-08T04:41:16.316Z,32.62
2023-05-08T04:42:16.160Z,31.86
2023-05-08T04:43:16.152Z,27.26
2023-05-08T04:44:16.158Z,33.08
2023-05-08T04:45:16.194Z,32.25
2023-05-08T04:46:16.191Z,29.26
2023-05-08T04:47:16.180Z,29.10
2023-05-08T04:48:16.152Z,31.69
2023-05-08T04:49:16.154Z,31.61
2023-05-08T04:50:16.158Z,31.53
2023-05-08T04:51:16.171Z,30.54
2023-05-08T04:52:16.196Z,29.30
2023-05-08T04:53:16.211Z,30.97
2023-05-08T04:54:16.219Z,28.39
2023-05-08T04:55:16.239Z,31.31
2023-05-08T04:56:16.247Z,30.61
2023-05-08T04:57:16.266Z,29.82
2023-05-08T04:58:16.276Z,31.29
2023-05-08T04:59:16.348Z,28.82
2023-05-08T05:00:16.317Z,30.08
2023-05-08T05:01:16.364Z,27.64
2023-05-08T05:02:16.327Z,29.69
2023-05-08T05:03:16.422Z,30.99
2023-05-08T05:04:16.375Z,34.64
2023-05-08T05:05:16.470Z,30.36
2023-05-08T05:06:16.393Z,28.79
2023-05-08T05:07:16.415Z,29.32
2023-05-08T05:08:16.415Z,32.06
2023-05-08T05:09:16.479Z,29.11
2023-05-08T05:10:16.474Z,28.75
2023-05-08T05:11:16.484Z,33.35
2023-05-08T05:12:16.502Z,29.88
2023-05-08T05:13:16.968Z,28.05
2023-05-08T05:14:16.532Z,31.75
2023-05-08T05:15:16.552Z,32.78
2023-05-08T05:16:16.605Z,27.56
2023-05-08T05:17:16.620Z,29.83
2023-05-08T05:18:17.460Z,33.70
2023-05-08T05:19:16.633Z,32.05
2023-05-08T05:20:16.970Z,32.44
2023-05-08T05:21:16.670Z,33.69
2023-05-08T05:22:16.950Z,32.17
2023-05-08T05:23:16.720Z,34.94
2023-05-08T05:24:16.722Z,48.06
2023-05-08T05:25:16.762Z,58.12
2023-05-08T05:26:17.005Z,67.01
2023-05-08T05:27:17.521Z,74.04
2023-05-08T05:28:16.794Z,76.77
2023-05-08T05:29:16.791Z,84.23
2023-05-08T05:30:16.809Z,80.64
2023-05-08T05:31:16.900Z,82.75
2023-05-08T05:32:16.785Z,89.72
2023-05-08T05:33:16.787Z,95.05
2023-05-08T05:34:16.769Z,99.26
2023-05-08T05:35:16.745Z,106.66
2023-05-08T05:36:16.730Z,110.74
2023-05-08T05:37:16.967Z,121.12
2023-05-08T05:38:17.461Z,121.34
2023-05-08T05:39:16.729Z,118.80
2023-05-08T05:40:16.987Z,122.20
2023-05-08T05:41:16.733Z,122.34
2023-05-08T05:42:16.971Z,121.90
2023-05-08T05:43:16.849Z,120.54
2023-05-08T05:44:16.696Z,124.94
2023-05-08T05:45:16.959Z,129.04
2023-05-08T05:46:16.684Z,129.18
2023-05-08T05:47:16.777Z,131.11
2023-05-08T05:48:16.645Z,137.66
2023-05-08T05:49:16.683Z,138.09
2023-05-08T05:50:16.966Z,140.42
2023-05-08T05:51:16.627Z,138.48
2023-05-08T05:52:24.022Z,143.53
2023-05-08T05:53:16.618Z,144.48
2023-05-08T05:54:16.607Z,149.84
2023-05-08T05:55:16.966Z,154.53
2023-05-08T05:56:16.585Z,164.49
2023-05-08T05:57:16.962Z,189.72
2023-05-08T05:58:16.963Z,192.60
2023-05-08T05:59:16.572Z,190.65
2023-05-08T06:00:16.602Z,180.68
2023-05-08T06:01:16.577Z,185.67
2023-05-08T06:02:16.982Z,183.74
2023-05-08T06:03:16.626Z,184.05
2023-05-08T06:06:16.539Z,184.91
2023-05-08T06:07:17.137Z,190.43
2023-05-08T06:08:23.907Z,198.28
2023-05-08T06:09:16.529Z,185.12
2023-05-08T06:10:16.529Z,188.79
2023-05-08T06:11:19.699Z,194.99
2023-05-08T06:12:16.469Z,185.03
2023-05-08T06:13:16.549Z,188.39
2023-05-08T06:14:16.532Z,192.90
2023-05-08T06:15:16.449Z,201.92
2023-05-08T06:16:16.473Z,211.39
2023-05-08T06:17:17.419Z,209.04
2023-05-08T06:18:16.420Z,215.74
2023-05-08T06:19:16.429Z,220.24
2023-05-08T06:20:16.484Z,226.84
2023-05-08T06:21:16.412Z,237.97
2023-05-08T06:22:16.430Z,245.33
2023-05-08T06:23:16.378Z,247.76
2023-05-08T06:24:16.384Z,249.80
2023-05-08T06:25:16.477Z,246.81
2023-05-08T06:26:16.356Z,248.44
2023-05-08T06:27:16.470Z,248.58
2023-05-08T06:28:16.346Z,249.58
2023-05-08T06:29:16.349Z,250.00
2023-05-08T06:30:16.481Z,249.70
2023-05-08T06:31:16.389Z,248.98
2023-05-08T06:32:16.333Z,248.34
2023-05-08T06:33:16.311Z,250.00
2023-05-08T06:34:16.391Z,249.68
2023-05-08T06:35:16.481Z,249.97
2023-05-08T06:36:16.524Z,249.82
2023-05-08T06:37:16.548Z,249.30
2023-05-08T06:38:16.639Z,249.63
2023-05-08T06:39:16.645Z,248.82
2023-05-08T06:40:16.704Z,248.99
2023-05-08T06:41:16.748Z,250.72
2023-05-08T06:42:16.782Z,248.49
2023-05-08T06:43:17.176Z,247.93
2023-05-08T06:44:17.240Z,250.00
2023-05-08T06:45:17.511Z,249.00
2023-05-08T06:46:17.175Z,250.00
2023-05-08T06:47:20.692Z,250.00
2023-05-08T06:48:16.954Z,250.13
2023-05-08T06:49:16.933Z,250.36
2023-05-08T06:50:16.947Z,251.25
2023-05-08T06:51:16.960Z,252.48
2023-05-08T06:52:16.986Z,253.35
2023-05-08T06:53:16.902Z,250.00
2023-05-08T06:54:17.115Z,247.96
2023-05-08T06:55:16.916Z,248.45
2023-05-08T06:56:17.017Z,250.00
2023-05-08T06:57:17.044Z,246.92
2023-05-08T06:58:16.895Z,248.41
2023-05-08T06:59:16.897Z,248.54
2023-05-08T07:00:16.893Z,249.70
2023-05-08T07:01:17.240Z,249.96
2023-05-08T07:02:17.316Z,250.00
2023-05-08T07:03:17.586Z,249.24
2023-05-08T07:04:17.160Z,248.35
2023-05-08T07:05:17.485Z,249.81
2023-05-08T07:06:17.255Z,247.67
2023-05-08T07:07:17.274Z,249.06
2023-05-08T07:08:17.184Z,247.20
2023-05-08T07:09:17.207Z,248.43
2023-05-08T07:10:17.205Z,249.17
2023-05-08T07:11:16.823Z,248.83
2023-05-08T07:12:20.094Z,248.32
2023-05-08T07:13:17.076Z,248.55
2023-05-08T07:14:16.844Z,249.02
2023-05-08T07:15:25.528Z,250.19
2023-05-08T07:16:16.847Z,248.82
2023-05-08T07:17:16.813Z,249.70
2023-05-08T07:18:20.435Z,250.76
2023-05-08T07:19:16.795Z,248.80
2023-05-08T07:20:16.777Z,249.84
2023-05-08T07:21:16.773Z,251.21
2023-05-08T07:22:16.807Z,254.97
2023-05-08T07:23:17.233Z,258.90
2023-05-08T07:24:17.068Z,248.68
2023-05-08T07:25:16.734Z,249.86
2023-05-08T07:26:16.888Z,249.29
2023-05-08T07:27:16.779Z,247.46
2023-05-08T07:28:17.002Z,247.83
2023-05-08T07:29:16.714Z,247.83
2023-05-08T07:30:16.878Z,250.00
2023-05-08T07:31:16.736Z,247.96
2023-05-08T07:32:19.892Z,249.44
2023-05-08T07:33:17.048Z,249.63
2023-05-08T07:34:16.692Z,250.04
2023-05-08T07:35:17.033Z,250.59
2023-05-08T07:36:16.667Z,253.10
2023-05-08T07:37:16.654Z,255.62
2023-05-08T07:38:32.244Z,249.93
2023-05-08T07:39:17.241Z,250.28
2023-05-08T07:41:16.685Z,250.47
2023-05-08T07:42:16.728Z,251.80
2023-05-08T07:43:16.644Z,252.44
2023-05-08T07:44:17.033Z,253.96
2023-05-08T07:45:16.819Z,256.89
2023-05-08T07:46:17.266Z,247.66
2023-05-08T07:47:16.694Z,249.05
2023-05-08T07:48:20.389Z,248.34
2023-05-08T07:49:17.208Z,248.44
2023-05-08T07:50:19.756Z,247.90
2023-05-08T07:51:16.554Z,248.41
2023-05-08T07:52:16.559Z,248.43
2023-05-08T07:53:48.821Z,248.41
2023-05-08T07:54:20.219Z,248.58
2023-05-08T07:55:23.953Z,248.67
2023-05-08T07:56:19.708Z,248.69
2023-05-08T07:57:24.415Z,248.64
2023-05-08T07:58:24.093Z,248.59
2023-05-08T07:59:16.503Z,248.64
2023-05-08T08:00:19.733Z,247.39
2023-05-08T08:01:16.474Z,244.60
2023-05-08T08:02:16.893Z,235.14
2023-05-08T08:03:19.863Z,230.56
2023-05-08T08:04:16.548Z,229.62
2023-05-08T08:05:23.908Z,221.97
2023-05-08T08:06:16.454Z,224.26
2023-05-08T08:07:16.438Z,218.17
2023-05-08T08:08:16.513Z,211.00
2023-05-08T08:09:16.430Z,203.10
2023-05-08T08:10:16.423Z,199.41
2023-05-08T08:11:16.401Z,196.73
2023-05-08T08:12:16.402Z,194.01
2023-05-08T08:13:16.773Z,189.91
2023-05-08T08:14:16.520Z,188.69
2023-05-08T08:15:16.511Z,186.83
2023-05-08T08:16:16.381Z,184.97
2023-05-08T08:17:16.472Z,182.00
2023-05-08T08:18:16.483Z,179.98
2023-05-08T08:19:16.519Z,177.92
2023-05-08T08:20:16.356Z,177.08
2023-05-08T08:21:16.340Z,175.23
2023-05-08T08:22:16.344Z,174.46
2023-05-08T08:23:16.330Z,172.70
2023-05-08T08:24:16.321Z,170.68
2023-05-08T08:25:16.520Z,167.25
2023-05-08T08:26:16.302Z,166.50
2023-05-08T08:27:16.399Z,165.61
2023-05-08T08:28:16.306Z,163.85
2023-05-08T08:29:16.650Z,162.95
2023-05-08T08:30:18.201Z,162.18
2023-05-08T08:31:16.572Z,166.36
2023-05-08T08:32:16.274Z,165.43
2023-05-08T08:33:18.807Z,163.48
2023-05-08T08:34:16.257Z,163.50
2023-05-08T08:35:16.896Z,161.33
2023-05-08T08:36:16.247Z,161.32
2023-05-08T08:37:16.239Z,161.59
2023-05-08T08:38:16.248Z,160.00
2023-05-08T08:39:16.248Z,161.23
2023-05-08T08:40:16.519Z,158.50
2023-05-08T08:41:23.639Z,156.04
2023-05-08T08:42:48.055Z,156.33
2023-05-08T08:43:16.184Z,156.49
2023-05-08T08:44:31.910Z,157.20
2023-05-08T08:45:16.768Z,156.47
2023-05-08T08:46:16.365Z,156.40
2023-05-08T08:47:16.236Z,157.08
2023-05-08T08:48:16.164Z,160.72
2023-05-08T08:49:16.530Z,164.64
2023-05-08T08:50:16.165Z,174.74
2023-05-08T08:51:16.158Z,177.56
2023-05-08T08:52:16.129Z,179.49
2023-05-08T08:53:16.129Z,179.81
2023-05-08T08:54:16.543Z,179.74
2023-05-08T08:55:16.574Z,180.11
2023-05-08T08:56:16.326Z,179.51
2023-05-08T08:57:16.286Z,178.09
2023-05-08T08:58:16.540Z,177.82
2023-05-08T08:59:16.087Z,176.68
2023-05-08T09:00:16.201Z,177.46
2023-05-08T09:01:16.072Z,175.73
2023-05-08T09:02:16.073Z,172.67
2023-05-08T09:03:16.159Z,172.63
2023-05-08T09:04:16.197Z,177.70
2023-05-08T09:05:16.345Z,179.85
2023-05-08T09:06:16.301Z,178.50
2023-05-08T09:07:16.293Z,178.52
2023-05-08T09:08:16.304Z,178.69
2023-05-08T09:09:16.247Z,174.54
2023-05-08T09:10:16.534Z,178.02
2023-05-08T09:11:16.300Z,178.10
2023-05-08T09:12:16.339Z,178.31
2023-05-08T09:13:17.422Z,175.46
2023-05-08T09:14:16.392Z,175.56
2023-05-08T09:15:16.639Z,174.70
2023-05-08T09:16:16.704Z,174.57
2023-05-08T09:17:16.361Z,173.34
2023-05-08T09:18:16.415Z,172.79
2023-05-08T09:19:16.347Z,171.82
2023-05-08T09:20:16.369Z,171.65
2023-05-08T09:21:16.331Z,170.92
2023-05-08T09:22:16.325Z,169.07
2023-05-08T09:23:16.380Z,169.27
2023-05-08T09:24:16.451Z,168.87
2023-05-08T09:25:16.489Z,169.17
2023-05-08T09:26:32.134Z,168.38
2023-05-08T09:27:16.360Z,168.66
2023-05-08T09:28:16.600Z,168.79
2023-05-08T09:29:16.265Z,168.00
2023-05-08T09:30:23.687Z,168.08
2023-05-08T09:31:16.770Z,168.57
2023-05-08T09:32:16.458Z,168.50
2023-05-08T09:33:16.540Z,166.79
2023-05-08T09:34:16.233Z,165.53
2023-05-08T09:35:16.553Z,163.12
2023-05-08T09:36:16.590Z,162.41
2023-05-08T09:37:16.217Z,161.01
2023-05-08T09:38:17.202Z,162.38
2023-05-08T09:39:16.205Z,162.69
2023-05-08T09:40:16.200Z,163.00
2023-05-08T09:41:16.597Z,160.98
2023-05-08T09:42:16.167Z,161.61
2023-05-08T09:43:19.615Z,161.07
2023-05-08T09:44:16.169Z,161.26
2023-05-08T09:45:17.585Z,161.49
2023-05-08T09:46:17.366Z,162.01
2023-05-08T09:47:16.332Z,161.95
2023-05-08T09:48:16.716Z,160.81
2023-05-08T09:49:16.329Z,159.98
2023-05-08T09:50:16.504Z,160.44
2023-05-08T09:51:16.546Z,159.33
2023-05-08T09:52:16.462Z,161.51
2023-05-08T09:53:16.554Z,161.51
2023-05-08T09:54:16.528Z,163.37
2023-05-08T09:55:16.573Z,161.84
2023-05-08T09:56:17.091Z,161.25
2023-05-08T09:57:16.665Z,161.98
2023-05-08T09:58:16.728Z,161.69
2023-05-08T09:59:16.754Z,160.85
2023-05-08T10:00:17.161Z,162.21
2023-05-08T10:01:17.063Z,161.95
2023-05-08T10:02:16.881Z,161.51
2023-05-08T10:03:17.059Z,161.27
2023-05-08T10:04:17.089Z,161.64
2023-05-08T10:05:17.047Z,161.93
2023-05-08T10:06:17.547Z,162.40
2023-05-08T10:07:17.356Z,160.79
2023-05-08T10:08:17.328Z,160.20
2023-05-08T10:09:17.413Z,160.35
2023-05-08T10:10:17.341Z,160.18
2023-05-08T10:11:17.342Z,158.69
2023-05-08T10:12:17.246Z,158.19
2023-05-08T10:13:17.600Z,158.28
2023-05-08T10:14:17.250Z,157.12
2023-05-08T10:15:17.289Z,158.49
2023-05-08T10:16:17.342Z,160.02
2023-05-08T10:17:17.624Z,159.47
2023-05-08T10:18:18.278Z,160.44
2023-05-08T10:19:17.387Z,161.37
2023-05-08T10:20:18.613Z,161.64
2023-05-08T10:21:17.581Z,164.21
2023-05-08T10:22:17.377Z,162.14
2023-05-08T10:23:17.380Z,163.01
2023-05-08T10:24:20.564Z,163.23
2023-05-08T10:25:17.351Z,163.39
2023-05-08T10:26:17.559Z,163.46
2023-05-08T10:27:17.336Z,160.38
2023-05-08T10:28:17.325Z,160.90
2023-05-08T10:29:17.312Z,161.47
2023-05-08T10:30:17.344Z,160.81
2023-05-08T10:31:17.702Z,164.47
2023-05-08T10:32:17.564Z,165.22
2023-05-08T10:33:17.302Z,165.32
2023-05-08T10:34:17.288Z,164.20
2023-05-08T10:35:17.299Z,163.38
2023-05-08T10:36:17.709Z,163.38
2023-05-08T10:37:17.295Z,163.21
2023-05-08T10:38:17.263Z,159.57
2023-05-08T10:39:17.257Z,159.81
2023-05-08T10:40:17.238Z,161.36
2023-05-08T10:41:20.816Z,160.14
2023-05-08T10:42:17.214Z,160.36
2023-05-08T10:43:17.236Z,160.60
2023-05-08T10:44:17.198Z,160.91
2023-05-08T10:45:17.185Z,161.02
2023-05-08T10:46:18.572Z,160.18
2023-05-08T10:47:17.176Z,162.59
2023-05-08T10:48:17.165Z,159.60
2023-05-08T10:49:17.192Z,163.11
2023-05-08T10:50:18.140Z,162.47
2023-05-08T10:51:17.575Z,159.93
2023-05-08T10:52:17.211Z,159.46
2023-05-08T10:53:18.165Z,161.46
2023-05-08T10:54:20.379Z,162.69
2023-05-08T10:55:17.176Z,162.79
2023-05-08T10:56:17.328Z,162.98
2023-05-08T10:57:17.312Z,162.56
2023-05-08T10:58:17.570Z,163.13
2023-05-08T10:59:17.655Z,161.46
2023-05-08T11:00:17.181Z,161.62
2023-05-08T11:01:17.693Z,162.96
2023-05-08T11:02:17.200Z,161.00
2023-05-08T11:03:30.693Z,162.77
2023-05-08T11:04:17.180Z,163.03
2023-05-08T11:05:17.145Z,163.62
2023-05-08T11:06:17.576Z,163.37
2023-05-08T11:07:17.102Z,163.48
2023-05-08T11:08:17.105Z,163.68
2023-05-08T11:09:17.088Z,169.22
2023-05-08T11:10:17.576Z,168.81
2023-05-08T11:11:17.257Z,169.41
2023-05-08T11:12:17.055Z,169.33
2023-05-08T11:13:18.063Z,169.22
2023-05-08T11:14:17.078Z,167.94
2023-05-08T11:15:17.077Z,167.78
2023-05-08T11:16:17.108Z,166.56
2023-05-08T11:17:17.037Z,166.52
2023-05-08T11:18:17.011Z,166.37
2023-05-08T11:19:17.517Z,167.65
2023-05-08T11:20:17.660Z,167.03
2023-05-08T11:21:17.601Z,164.59
2023-05-08T11:22:17.396Z,165.42
2023-05-08T11:23:49.261Z,167.76
2023-05-08T11:24:17.216Z,168.06
2023-05-08T11:25:16.984Z,168.31
2023-05-08T11:26:17.009Z,166.93
2023-05-08T11:27:16.956Z,163.26
2023-05-08T11:28:17.124Z,162.92
2023-05-08T11:29:17.082Z,160.04
2023-05-08T11:30:16.924Z,157.39
2023-05-08T11:31:16.948Z,156.34
2023-05-08T11:33:16.922Z,154.82
2023-05-08T11:34:18.389Z,155.64
2023-05-08T11:35:16.959Z,156.33
2023-05-08T11:36:17.428Z,156.87
2023-05-08T11:37:18.601Z,154.57
2023-05-08T11:38:17.408Z,155.98
2023-05-08T11:39:17.184Z,156.09
2023-05-08T11:40:17.208Z,155.47
2023-05-08T11:41:18.223Z,155.60
2023-05-08T11:42:18.580Z,153.51
2023-05-08T11:43:17.315Z,155.19
2023-05-08T11:44:20.709Z,155.19
2023-05-08T11:45:17.351Z,155.32
2023-05-08T11:46:17.500Z,155.60
2023-05-08T11:47:17.492Z,155.22
2023-05-08T11:48:17.396Z,155.33
2023-05-08T11:49:18.877Z,153.36
2023-05-08T11:50:17.623Z,155.25
2023-05-08T11:51:17.435Z,155.24
2023-05-08T11:52:17.425Z,153.46
2023-05-08T11:53:17.375Z,153.03
2023-05-08T11:54:17.592Z,151.99
2023-05-08T11:55:17.420Z,150.87
2023-05-08T11:56:17.411Z,147.78
2023-05-08T11:57:17.421Z,145.20
2023-05-08T11:58:17.282Z,146.09
2023-05-08T11:59:17.594Z,144.24
2023-05-08T12:00:24.698Z,145.71
2023-05-08T12:01:17.468Z,145.98
2023-05-08T12:02:17.266Z,146.79
2023-05-08T12:03:17.516Z,148.13
2023-05-08T12:04:17.847Z,151.52
2023-05-08T12:05:17.205Z,154.70
2023-05-08T12:06:24.613Z,156.41
2023-05-08T12:07:17.614Z,156.68
2023-05-08T12:08:17.168Z,156.81
2023-05-08T12:09:17.199Z,157.69
2023-05-08T12:10:17.757Z,159.26
2023-05-08T12:11:17.196Z,162.94
2023-05-08T12:12:17.599Z,166.69
2023-05-08T12:13:17.204Z,167.87
2023-05-08T12:14:17.141Z,168.68
2023-05-08T12:15:17.222Z,168.03
2023-05-08T12:16:17.115Z,166.38
2023-05-08T12:17:17.841Z,169.87
2023-05-08T12:18:17.539Z,171.21
2023-05-08T12:19:17.544Z,173.11
2023-05-08T12:20:18.047Z,173.33
2023-05-08T12:21:17.483Z,174.67
2023-05-08T12:22:17.814Z,176.87
2023-05-08T12:23:17.281Z,177.08
2023-05-08T12:24:17.425Z,177.01
2023-05-08T12:25:17.656Z,177.29
2023-05-08T12:26:17.253Z,178.88
2023-05-08T12:27:17.301Z,176.87
2023-05-08T12:28:17.443Z,177.71
2023-05-08T12:29:17.669Z,179.37
2023-05-08T12:30:18.175Z,179.35
2023-05-08T12:31:17.481Z,178.91
2023-05-08T12:32:17.630Z,178.67
2023-05-08T12:33:17.531Z,178.98
2023-05-08T12:34:17.590Z,179.39
2023-05-08T12:35:17.515Z,179.50
2023-05-08T12:36:17.453Z,177.41
2023-05-08T12:37:17.435Z,178.37
2023-05-08T12:38:17.751Z,177.78
2023-05-08T12:39:18.010Z,178.58
2023-05-08T12:40:17.853Z,177.42
2023-05-08T12:41:17.770Z,178.18
2023-05-08T12:42:17.923Z,177.70
2023-05-08T12:43:17.775Z,176.97